createdAt,value
2016-02-02T00:06:05.671Z,1009.36
2016-02-02T00:07:05.674Z,1009.24
2016-02-02T00:08:05.693Z,1009.18
2016-02-02T00:09:05.695Z,1009.21
2016-02-02T00:10:05.698Z,1009.29
2016-02-02T00:11:05.704Z,1009.18
2016-02-02T00:12:05.706Z,1009.14
2016-02-02T00:13:05.709Z,1009.14
2016-02-02T00:14:05.727Z,1009.33
2016-02-02T00:15:05.731Z,1009.34
2016-02-02T00:16:05.734Z,1009.16
2016-02-02T00:17:05.737Z,1009.11
2016-02-02T00:18:05.740Z,1009.11
2016-02-02T00:19:05.757Z,1009.12
2016-02-02T00:20:05.760Z,1009.03
2016-02-02T00:21:05.766Z,1009.4
2016-02-02T00:22:05.769Z,1009.13
2016-02-02T00:23:05.774Z,1009.15
2016-02-02T00:24:05.777Z,1009
2016-02-02T00:25:05.795Z,1008.96
2016-02-02T00:26:05.799Z,1009.04
2016-02-02T00:27:05.801Z,1009.03
2016-02-02T00:28:05.805Z,1009.03
2016-02-02T00:29:05.808Z,1009.05
2016-02-02T00:31:05.829Z,1009.07
2016-02-02T00:32:05.832Z,1009.02
2016-02-02T00:33:05.835Z,1009.22
2016-02-02T00:34:05.839Z,1009.07
2016-02-02T00:35:05.841Z,1009.26
2016-02-02T00:36:05.844Z,1009.08
2016-02-02T00:37:05.864Z,1009.13
2016-02-02T00:38:05.867Z,1009.19
2016-02-02T00:39:05.869Z,1009.32
2016-02-02T00:40:05.871Z,1009.31
2016-02-02T00:41:05.874Z,1009.26
2016-02-02T00:42:05.879Z,1009.21
2016-02-02T00:43:05.896Z,1009.28
2016-02-02T00:44:05.899Z,1009.3
2016-02-02T00:45:05.902Z,1009.16
2016-02-02T00:46:05.921Z,1009.17
2016-02-02T00:47:05.924Z,1009.19
2016-02-02T00:48:05.926Z,1009.3
2016-02-02T00:49:05.930Z,1009.31
2016-02-02T00:50:05.933Z,1009.11
2016-02-02T00:51:05.935Z,1009.26
2016-02-02T00:52:05.938Z,1009.19
2016-02-02T00:53:05.942Z,1009.21
2016-02-02T00:54:05.961Z,1009.12
2016-02-02T00:55:05.963Z,1009.25
2016-02-02T00:56:05.966Z,1009.24
2016-02-02T00:57:05.968Z,1009.3
2016-02-02T00:58:05.972Z,1009.23
2016-02-02T00:59:05.990Z,1009.27
2016-02-02T01:01:06.002Z,1009.35
2016-02-02T01:02:06.005Z,1009.28
2016-02-02T01:03:06.008Z,1009.32
2016-02-02T01:04:06.026Z,1009.33
2016-02-02T01:05:06.013Z,1009.29
2016-02-02T01:06:06.016Z,1009.25
2016-02-02T01:07:06.035Z,1009.32
2016-02-02T01:08:06.039Z,1009.39
2016-02-02T01:09:06.042Z,1009.37
2016-02-02T01:10:06.045Z,1009.28
2016-02-02T01:11:06.047Z,1009.37
2016-02-02T01:12:06.065Z,1009.37
2016-02-02T01:13:06.068Z,1009.36
2016-02-02T01:14:06.070Z,1009.28
2016-02-02T01:15:06.073Z,1009.21
2016-02-02T01:16:06.076Z,1009.08
2016-02-02T01:17:06.095Z,1009.12
2016-02-02T01:18:06.097Z,1009.22
2016-02-02T01:19:06.101Z,1009.25
2016-02-02T01:20:06.103Z,1009.19
2016-02-02T01:21:06.106Z,1009.21
2016-02-02T01:22:06.109Z,1009.19
2016-02-02T01:23:06.126Z,1009.21
2016-02-02T01:24:06.129Z,1009.28
2016-02-02T01:25:06.132Z,1009.17
2016-02-02T01:26:06.135Z,1009.11
2016-02-02T01:27:06.137Z,1009.17
2016-02-02T01:28:06.156Z,1008.96
2016-02-02T01:29:06.152Z,1009.17
2016-02-02T01:34:01.746Z,1009.08
2016-02-02T01:35:01.750Z,1009.14
2016-02-02T01:36:01.753Z,1009.13
2016-02-02T01:37:01.757Z,1009.11
2016-02-02T01:38:01.775Z,1008.95
2016-02-02T01:39:01.777Z,1009.14
2016-02-02T01:40:01.782Z,1009.17
2016-02-02T01:41:01.785Z,1009.06
2016-02-02T01:42:01.788Z,1008.97
2016-02-02T01:43:01.790Z,1008.91
2016-02-02T01:44:01.809Z,1009.01
2016-02-02T01:45:01.797Z,1009.02
2016-02-02T01:46:01.815Z,1008.96
2016-02-02T01:47:01.817Z,1009.03
2016-02-02T01:48:01.819Z,1008.95
2016-02-02T01:49:01.826Z,1009.09
2016-02-02T01:50:01.828Z,1009.08
2016-02-02T01:51:01.834Z,1009.24
2016-02-02T01:52:01.852Z,1009.15
2016-02-02T01:53:01.856Z,1009.03
2016-02-02T01:54:01.858Z,1009.11
2016-02-02T01:55:01.860Z,1009.04
2016-02-02T01:56:01.866Z,1009.03
2016-02-02T01:57:01.869Z,1009.03
2016-02-02T01:58:01.872Z,1009.14
2016-02-02T01:59:01.875Z,1009.01
2016-02-02T02:00:01.893Z,1009
2016-02-02T02:01:01.897Z,1009.02
2016-02-02T02:02:01.899Z,1008.94
2016-02-02T02:03:01.902Z,1008.99
2016-02-02T02:04:01.905Z,1008.97
2016-02-02T02:05:01.910Z,1008.88
2016-02-02T02:06:01.928Z,1009.08
2016-02-02T02:07:01.931Z,1009.11
2016-02-02T02:08:01.934Z,1009.07
2016-02-02T02:09:01.937Z,1009.1
2016-02-02T02:10:01.940Z,1009.02
2016-02-02T02:11:01.958Z,1008.97
2016-02-02T02:12:01.961Z,1008.98
2016-02-02T02:13:01.964Z,1008.97
2016-02-02T02:14:01.967Z,1009.02
2016-02-02T02:15:01.970Z,1008.87
2016-02-02T02:16:01.988Z,1008.87
2016-02-02T02:17:01.982Z,1008.85
2016-02-02T02:18:01.985Z,1008.79
2016-02-02T02:19:02.003Z,1008.76
2016-02-02T02:20:02.005Z,1008.82
2016-02-02T02:21:02.008Z,1008.9
2016-02-02T02:22:02.012Z,1008.9
2016-02-02T02:23:02.031Z,1008.77
2016-02-02T02:24:02.017Z,1008.82
2016-02-02T02:25:02.037Z,1008.65
2016-02-02T02:26:02.043Z,1008.91
2016-02-02T02:27:02.045Z,1008.72
2016-02-02T02:28:02.048Z,1008.67
2016-02-02T02:29:02.051Z,1008.75
2016-02-02T02:34:26.832Z,1008.72
2016-02-02T02:35:26.834Z,1008.71
2016-02-02T02:36:26.837Z,1008.62
2016-02-02T02:37:26.856Z,1008.69
2016-02-02T02:38:26.843Z,1008.68
2016-02-02T02:39:26.861Z,1008.58
2016-02-02T02:40:26.863Z,1008.61
2016-02-02T02:41:26.866Z,1008.68
2016-02-02T02:42:26.870Z,1008.56
2016-02-02T02:43:26.873Z,1008.64
2016-02-02T02:44:26.890Z,1008.65
2016-02-02T02:45:26.894Z,1008.71
2016-02-02T02:46:26.896Z,1008.72
2016-02-02T02:47:26.901Z,1008.67
2016-02-02T02:48:26.904Z,1008.64
2016-02-02T02:49:26.907Z,1008.6
2016-02-02T02:50:26.910Z,1008.6
2016-02-02T02:51:26.929Z,1008.64
2016-02-02T02:52:26.932Z,1008.57
2016-02-02T02:53:26.935Z,1008.56
2016-02-02T02:54:26.938Z,1008.57
2016-02-02T02:55:26.940Z,1008.58
2016-02-02T02:56:26.947Z,1008.52
2016-02-02T02:57:26.949Z,1008.56
2016-02-02T02:58:26.968Z,1008.53
2016-02-02T02:59:26.960Z,1008.51
2016-02-02T03:03:19.971Z,1008.64
2016-02-02T03:04:16.228Z,1008.58
2016-02-02T03:05:16.230Z,1008.54
2016-02-02T03:06:16.249Z,1008.62
2016-02-02T03:07:16.252Z,1008.5
2016-02-02T03:08:16.255Z,1008.62
2016-02-02T03:09:16.257Z,1008.51
2016-02-02T03:10:16.260Z,1008.55
2016-02-02T03:11:16.279Z,1008.5
2016-02-02T03:12:16.283Z,1008.52
2016-02-02T03:13:16.286Z,1008.45
2016-02-02T03:14:16.291Z,1008.48
2016-02-02T03:15:16.296Z,1008.45
2016-02-02T03:16:16.298Z,1008.54
2016-02-02T03:17:16.301Z,1008.52
2016-02-02T03:18:16.319Z,1008.46
2016-02-02T03:19:16.307Z,1008.55
2016-02-02T03:20:16.325Z,1008.53
2016-02-02T03:21:16.328Z,1008.44
2016-02-02T03:22:16.330Z,1008.49
2016-02-02T03:23:16.334Z,1008.51
2016-02-02T03:24:16.356Z,1008.61
2016-02-02T03:25:16.343Z,1008.58
2016-02-02T03:26:16.362Z,1008.43
2016-02-02T03:27:16.350Z,1008.45
2016-02-02T03:28:16.369Z,1008.44
2016-02-02T03:29:16.374Z,1008.44
2016-02-02T03:34:20.929Z,1008.36
2016-02-02T03:35:20.932Z,1008.33
2016-02-02T03:36:20.949Z,1008.42
2016-02-02T03:37:20.952Z,1008.36
2016-02-02T03:38:20.956Z,1008.39
2016-02-02T03:39:20.959Z,1008.38
2016-02-02T03:40:20.961Z,1008.37
2016-02-02T03:41:20.963Z,1008.37
2016-02-02T03:42:20.982Z,1008.38
2016-02-02T03:43:20.984Z,1008.28
2016-02-02T03:44:20.975Z,1008.35
2016-02-02T03:45:20.967Z,1008.34
2016-02-02T03:46:20.958Z,1008.29
2016-02-02T03:47:20.950Z,1008.34
2016-02-02T03:48:20.943Z,1008.3
2016-02-02T03:49:20.957Z,1008.35
2016-02-02T03:50:20.958Z,1008.33
2016-02-02T03:51:20.957Z,1008.38
2016-02-02T03:52:20.956Z,1008.4
2016-02-02T03:53:20.955Z,1008.53
2016-02-02T03:54:20.973Z,1008.45
2016-02-02T03:55:20.958Z,1008.42
2016-02-02T03:56:20.975Z,1008.44
2016-02-02T03:57:20.976Z,1008.38
2016-02-02T03:58:20.978Z,1008.38
2016-02-02T03:59:21.012Z,1008.38
2016-02-02T04:01:56.533Z,1008.34
2016-02-02T04:02:56.536Z,1008.29
2016-02-02T04:03:56.542Z,1008.34
2016-02-02T04:04:56.545Z,1008.24
2016-02-02T04:05:56.548Z,1008.32
2016-02-02T04:06:56.583Z,1008.43
2016-02-02T04:07:56.554Z,1008.35
2016-02-02T04:08:56.557Z,1008.44
2016-02-02T04:09:56.574Z,1008.38
2016-02-02T04:10:56.578Z,1008.31
2016-02-02T04:11:56.581Z,1008.19
2016-02-02T04:12:56.583Z,1008.2
2016-02-02T04:13:56.602Z,1008.16
2016-02-02T04:14:56.589Z,1008.15
2016-02-02T04:15:56.609Z,1008.27
2016-02-02T04:16:56.608Z,1008.15
2016-02-02T04:17:56.611Z,1008.06
2016-02-02T04:18:56.614Z,1008.1
2016-02-02T04:19:56.634Z,1008.03
2016-02-02T04:20:56.636Z,1008.04
2016-02-02T04:21:56.638Z,1008.13
2016-02-02T04:22:56.641Z,1008.15
2016-02-02T04:23:56.645Z,1008.09
2016-02-02T04:24:56.648Z,1008.09
2016-02-02T04:25:56.665Z,1008.07
2016-02-02T04:26:56.669Z,1008.15
2016-02-02T04:27:56.672Z,1008.16
2016-02-02T04:28:56.675Z,1008.28
2016-02-02T04:35:35.193Z,1008.06
2016-02-02T04:36:35.196Z,1008.18
2016-02-02T04:37:35.199Z,1007.99
2016-02-02T04:38:35.202Z,1007.87
2016-02-02T04:39:35.204Z,1008.11
2016-02-02T04:40:35.223Z,1007.96
2016-02-02T04:41:35.226Z,1008.13
2016-02-02T04:42:35.230Z,1008.03
2016-02-02T04:43:35.232Z,1008.09
2016-02-02T04:44:35.235Z,1008.01
2016-02-02T04:45:35.269Z,1008.02
2016-02-02T04:46:35.240Z,1008.02
2016-02-02T04:47:35.258Z,1007.97
2016-02-02T04:48:35.260Z,1007.93
2016-02-02T04:49:35.264Z,1007.95
2016-02-02T04:50:35.266Z,1008
2016-02-02T04:51:35.285Z,1008.04
2016-02-02T04:52:35.273Z,1008.08
2016-02-02T04:53:35.291Z,1008.02
2016-02-02T04:54:35.294Z,1008.09
2016-02-02T04:55:35.296Z,1007.99
2016-02-02T04:56:35.299Z,1008.06
2016-02-02T04:57:35.318Z,1007.97
2016-02-02T04:58:35.321Z,1007.94
2016-02-02T04:59:35.323Z,1007.9
2016-02-02T05:04:24.588Z,1007.93
2016-02-02T05:05:24.592Z,1007.95
2016-02-02T05:06:24.594Z,1007.97
2016-02-02T05:07:24.598Z,1008.09
2016-02-02T05:08:24.601Z,1007.98
2016-02-02T05:09:24.604Z,1007.97
2016-02-02T05:10:24.622Z,1007.87
2016-02-02T05:11:24.628Z,1007.88
2016-02-02T05:12:24.631Z,1007.93
2016-02-02T05:13:24.633Z,1007.96
2016-02-02T05:14:24.640Z,1007.91
2016-02-02T05:15:24.642Z,1007.9
2016-02-02T05:16:24.645Z,1008.02
2016-02-02T05:17:24.648Z,1007.98
2016-02-02T05:18:24.667Z,1007.92
2016-02-02T05:19:24.669Z,1007.92
2016-02-02T05:20:24.671Z,1007.92
2016-02-02T05:21:24.674Z,1007.83
2016-02-02T05:22:24.678Z,1007.84
2016-02-02T05:23:24.680Z,1007.84
2016-02-02T05:24:24.682Z,1007.88
2016-02-02T05:25:24.701Z,1007.84
2016-02-02T05:26:24.720Z,1007.79
2016-02-02T05:27:24.707Z,1007.79
2016-02-02T05:28:24.710Z,1007.83
2016-02-02T05:29:24.715Z,1007.78
2016-02-02T05:32:31.555Z,1007.74
2016-02-02T05:33:31.557Z,1007.85
2016-02-02T05:34:31.561Z,1007.78
2016-02-02T05:35:31.579Z,1007.79
2016-02-02T05:36:31.582Z,1007.8
2016-02-02T05:37:31.585Z,1007.77
2016-02-02T05:38:31.588Z,1007.88
2016-02-02T05:39:31.587Z,1007.83
2016-02-02T05:40:31.605Z,1007.85
2016-02-02T05:41:31.607Z,1007.82
2016-02-02T05:42:31.642Z,1007.81
2016-02-02T05:43:31.613Z,1007.88
2016-02-02T05:44:31.620Z,1007.89
2016-02-02T05:45:31.623Z,1007.92
2016-02-02T05:46:31.625Z,1007.91
2016-02-02T05:47:31.628Z,1007.94
2016-02-02T05:48:31.647Z,1007.86
2016-02-02T05:49:31.649Z,1007.91
2016-02-02T05:50:31.653Z,1007.95
2016-02-02T05:51:31.655Z,1008.01
2016-02-02T05:52:31.658Z,1007.96
2016-02-02T05:53:31.678Z,1007.95
2016-02-02T05:54:31.681Z,1007.85
2016-02-02T05:55:31.683Z,1007.79
2016-02-02T05:56:31.686Z,1007.73
2016-02-02T05:57:31.688Z,1007.81
2016-02-02T05:58:31.706Z,1007.77
2016-02-02T05:59:31.709Z,1007.79
2016-02-02T06:05:07.568Z,1007.65
2016-02-02T06:06:07.570Z,1007.77
2016-02-02T06:07:07.574Z,1007.76
2016-02-02T06:08:07.607Z,1007.79
2016-02-02T06:09:07.579Z,1007.8
2016-02-02T06:10:07.582Z,1007.69
2016-02-02T06:11:07.601Z,1007.79
2016-02-02T06:12:07.619Z,1007.77
2016-02-02T06:13:07.606Z,1007.75
2016-02-02T06:14:07.609Z,1007.81
2016-02-02T06:15:07.614Z,1007.85
2016-02-02T06:16:07.632Z,1007.77
2016-02-02T06:17:07.619Z,1007.85
2016-02-02T06:18:07.638Z,1007.79
2016-02-02T06:19:07.642Z,1007.82
2016-02-02T06:20:07.646Z,1007.81
2016-02-02T06:21:07.648Z,1007.83
2016-02-02T06:22:07.651Z,1007.81
2016-02-02T06:23:07.670Z,1007.87
2016-02-02T06:24:07.657Z,1007.81
2016-02-02T06:25:07.676Z,1007.82
2016-02-02T06:26:07.666Z,1007.83
2016-02-02T06:27:07.685Z,1007.85
2016-02-02T06:28:07.688Z,1007.82
2016-02-02T06:29:07.690Z,1007.84
2016-02-02T06:31:07.704Z,1007.87
2016-02-02T06:32:07.708Z,1007.85
2016-02-02T06:33:07.710Z,1007.91
2016-02-02T06:34:07.713Z,1007.98
2016-02-02T06:35:07.731Z,1007.97
2016-02-02T06:36:07.735Z,1008.08
2016-02-02T06:37:07.738Z,1007.99
2016-02-02T06:38:07.741Z,1007.99
2016-02-02T06:39:07.743Z,1007.95
2016-02-02T06:40:07.746Z,1007.92
2016-02-02T06:41:07.749Z,1007.99
2016-02-02T06:42:07.751Z,1007.93
2016-02-02T06:43:07.770Z,1007.92
2016-02-02T06:44:07.773Z,1007.91
2016-02-02T06:45:07.776Z,1007.96
2016-02-02T06:46:07.778Z,1007.91
2016-02-02T06:47:07.781Z,1007.95
2016-02-02T06:48:07.783Z,1007.95
2016-02-02T06:49:07.802Z,1007.92
2016-02-02T06:50:07.804Z,1007.91
2016-02-02T06:51:07.806Z,1007.88
2016-02-02T06:52:07.810Z,1007.87
2016-02-02T06:53:07.814Z,1007.87
2016-02-02T06:54:07.832Z,1007.86
2016-02-02T06:55:07.818Z,1007.84
2016-02-02T06:56:07.837Z,1007.83
2016-02-02T06:57:07.841Z,1007.82
2016-02-02T06:58:07.845Z,1007.84
2016-02-02T06:59:07.847Z,1007.85
2016-02-02T07:05:35.256Z,1007.85
2016-02-02T07:06:35.259Z,1007.89
2016-02-02T07:07:35.262Z,1007.91
2016-02-02T07:08:35.281Z,1007.9
2016-02-02T07:09:35.285Z,1007.9
2016-02-02T07:10:35.287Z,1007.87
2016-02-02T07:11:35.290Z,1007.85
2016-02-02T07:12:35.292Z,1007.88
2016-02-02T07:13:35.300Z,1007.85
2016-02-02T07:14:35.303Z,1007.86
2016-02-02T07:15:35.305Z,1007.9
2016-02-02T07:16:35.339Z,1007.93
2016-02-02T07:17:35.326Z,1007.89
2016-02-02T07:18:35.330Z,1007.94
2016-02-02T07:19:35.332Z,1007.88
2016-02-02T07:20:35.335Z,1007.92
2016-02-02T07:21:35.342Z,1007.92
2016-02-02T07:22:35.346Z,1007.93
2016-02-02T07:23:35.348Z,1007.89
2016-02-02T07:24:35.367Z,1007.9
2016-02-02T07:25:35.369Z,1007.85
2016-02-02T07:26:35.386Z,1007.94
2016-02-02T07:27:35.387Z,1007.89
2016-02-02T07:28:35.390Z,1007.92
2016-02-02T07:29:35.394Z,1007.94
2016-02-02T07:31:59.761Z,1007.89
2016-02-02T07:32:59.836Z,1007.94
2016-02-02T07:34:00.651Z,1007.91
2016-02-02T07:34:59.787Z,1007.9
2016-02-02T07:35:59.759Z,1007.94
2016-02-02T07:37:01.106Z,1007.95
2016-02-02T07:37:59.780Z,1007.91
2016-02-02T07:38:59.798Z,1007.85
2016-02-02T07:39:59.792Z,1007.84
2016-02-02T07:40:59.796Z,1007.92
2016-02-02T07:41:59.798Z,1007.87
2016-02-02T07:42:59.801Z,1007.79
2016-02-02T07:43:59.804Z,1007.85
2016-02-02T07:44:59.807Z,1007.91
2016-02-02T07:45:59.824Z,1007.71
2016-02-02T07:46:59.827Z,1007.95
2016-02-02T07:47:59.831Z,1007.88
2016-02-02T07:48:59.834Z,1007.82
2016-02-02T07:49:59.837Z,1007.85
2016-02-02T07:50:59.842Z,1007.97
2016-02-02T07:51:59.862Z,1007.91
2016-02-02T07:52:59.864Z,1007.83
2016-02-02T07:53:59.867Z,1007.91
2016-02-02T07:54:59.874Z,1007.84
2016-02-02T07:55:59.877Z,1007.83
2016-02-02T07:56:59.879Z,1007.82
2016-02-02T07:57:59.897Z,1007.75
2016-02-02T07:58:59.901Z,1007.78
2016-02-02T08:01:57.770Z,1007.81
2016-02-02T08:02:57.773Z,1007.84
2016-02-02T08:03:57.791Z,1007.78
2016-02-02T08:04:57.776Z,1007.81
2016-02-02T08:05:57.794Z,1007.76
2016-02-02T08:06:57.798Z,1007.81
2016-02-02T08:07:57.802Z,1007.78
2016-02-02T08:08:57.804Z,1007.83
2016-02-02T08:09:57.806Z,1007.82
2016-02-02T08:10:57.825Z,1007.81
2016-02-02T08:11:57.828Z,1007.83
2016-02-02T08:12:57.831Z,1007.85
2016-02-02T08:13:57.841Z,1007.83
2016-02-02T08:14:57.848Z,1007.83
2016-02-02T08:15:57.851Z,1007.8
2016-02-02T08:16:57.854Z,1007.73
2016-02-02T08:17:57.857Z,1007.74
2016-02-02T08:18:57.876Z,1007.78
2016-02-02T08:19:57.878Z,1007.83
2016-02-02T08:20:57.884Z,1007.82
2016-02-02T08:21:57.903Z,1007.78
2016-02-02T08:22:57.906Z,1007.83
2016-02-02T08:23:57.923Z,1007.84
2016-02-02T08:24:57.926Z,1007.81
2016-02-02T08:25:57.930Z,1007.66
2016-02-02T08:26:57.932Z,1007.8
2016-02-02T08:27:57.937Z,1007.76
2016-02-02T08:28:57.940Z,1007.74
2016-02-02T08:31:16.108Z,1007.78
2016-02-02T08:32:16.110Z,1007.77
2016-02-02T08:33:16.113Z,1007.77
2016-02-02T08:34:16.132Z,1007.76
2016-02-02T08:35:16.135Z,1007.79
2016-02-02T08:36:16.137Z,1007.7
2016-02-02T08:37:16.140Z,1007.76
2016-02-02T08:38:16.159Z,1007.73
2016-02-02T08:39:16.162Z,1007.69
2016-02-02T08:40:16.164Z,1007.68
2016-02-02T08:41:16.167Z,1007.6
2016-02-02T08:42:16.186Z,1007.64
2016-02-02T08:43:16.188Z,1007.63
2016-02-02T08:44:16.191Z,1007.68
2016-02-02T08:45:16.194Z,1007.67
2016-02-02T08:46:16.212Z,1007.6
2016-02-02T08:47:16.218Z,1007.59
2016-02-02T08:48:16.221Z,1007.58
2016-02-02T08:49:16.238Z,1007.57
2016-02-02T08:50:16.226Z,1007.59
2016-02-02T08:51:16.246Z,1007.68
2016-02-02T08:52:16.249Z,1007.66
2016-02-02T08:53:16.251Z,1007.65
2016-02-02T08:54:16.269Z,1007.58
2016-02-02T08:55:16.289Z,1007.57
2016-02-02T08:56:16.279Z,1007.6
2016-02-02T08:57:16.298Z,1007.6
2016-02-02T08:58:16.291Z,1007.6
2016-02-02T08:59:16.294Z,1007.61
2016-02-02T09:04:41.073Z,1007.55
2016-02-02T09:05:41.093Z,1007.55
2016-02-02T09:06:41.095Z,1007.52
2016-02-02T09:07:41.102Z,1007.47
2016-02-02T09:08:41.119Z,1007.47
2016-02-02T09:09:41.107Z,1007.38
2016-02-02T09:10:41.125Z,1007.43
2016-02-02T09:11:41.128Z,1007.38
2016-02-02T09:12:41.132Z,1007.42
2016-02-02T09:13:41.136Z,1007.47
2016-02-02T09:14:41.155Z,1007.37
2016-02-02T09:15:41.157Z,1007.32
2016-02-02T09:16:41.160Z,1007.38
2016-02-02T09:17:41.164Z,1007.37
2016-02-02T09:18:41.182Z,1007.32
2016-02-02T09:19:41.190Z,1007.36
2016-02-02T09:20:41.193Z,1007.42
2016-02-02T09:21:41.195Z,1007.46
2016-02-02T09:22:41.198Z,1007.45
2016-02-02T09:23:41.216Z,1007.4
2016-02-02T09:24:41.220Z,1007.37
2016-02-02T09:25:41.222Z,1007.33
2016-02-02T09:26:41.241Z,1007.39
2016-02-02T09:27:41.247Z,1007.33
2016-02-02T09:28:41.249Z,1007.38
2016-02-02T09:29:41.252Z,1007.24
2016-02-02T09:32:19.307Z,1007.28
2016-02-02T09:33:19.309Z,1007.29
2016-02-02T09:34:19.328Z,1007.29
2016-02-02T09:35:19.331Z,1007.36
2016-02-02T09:36:19.334Z,1007.36
2016-02-02T09:37:19.337Z,1007.29
2016-02-02T09:38:19.356Z,1007.31
2016-02-02T09:39:19.359Z,1007.26
2016-02-02T09:40:19.361Z,1007.29
2016-02-02T09:41:19.364Z,1007.27
2016-02-02T09:42:19.382Z,1007.32
2016-02-02T09:43:19.385Z,1007.26
2016-02-02T09:44:19.387Z,1007.27
2016-02-02T09:45:19.406Z,1007.26
2016-02-02T09:46:19.409Z,1007.3
2016-02-02T09:47:19.411Z,1007.27
2016-02-02T09:48:19.414Z,1007.28
2016-02-02T09:49:19.432Z,1007.24
2016-02-02T09:50:19.438Z,1007.24
2016-02-02T09:51:19.440Z,1007.31
2016-02-02T09:52:19.458Z,1007.23
2016-02-02T09:53:19.460Z,1007.12
2016-02-02T09:54:19.463Z,1007.16
2016-02-02T09:55:19.466Z,1007.28
2016-02-02T09:56:19.490Z,1007.28
2016-02-02T09:57:19.492Z,1007.24
2016-02-02T09:58:19.494Z,1007.26
2016-02-02T09:59:19.498Z,1007.37
2016-02-02T10:01:55.038Z,1007.19
2016-02-02T10:02:55.041Z,1007.23
2016-02-02T10:03:55.059Z,1007.24
2016-02-02T10:04:55.062Z,1007.2
2016-02-02T10:05:55.081Z,1007.27
2016-02-02T10:06:55.083Z,1007.22
2016-02-02T10:07:55.086Z,1007.19
2016-02-02T10:08:55.090Z,1007.21
2016-02-02T10:09:55.093Z,1007.2
2016-02-02T10:10:55.111Z,1007.05
2016-02-02T10:11:55.114Z,1007.18
2016-02-02T10:12:55.116Z,1007.13
2016-02-02T10:13:55.135Z,1007.25
2016-02-02T10:14:55.153Z,1007.26
2016-02-02T10:15:55.139Z,1007.23
2016-02-02T10:16:55.142Z,1007.13
2016-02-02T10:17:55.177Z,1007.25
2016-02-02T10:18:55.164Z,1007.19
2016-02-02T10:19:55.166Z,1007.26
2016-02-02T10:20:55.185Z,1007.19
2016-02-02T10:21:55.187Z,1007.23
2016-02-02T10:22:55.190Z,1007.16
2016-02-02T10:23:55.208Z,1007.11
2016-02-02T10:24:55.211Z,1007.12
2016-02-02T10:25:55.213Z,1007.14
2016-02-02T10:26:55.220Z,1007.12
2016-02-02T10:27:55.223Z,1007.15
2016-02-02T10:28:55.242Z,1007.18
2016-02-02T10:30:55.247Z,1007.13
2016-02-02T10:31:55.250Z,1006.99
2016-02-02T10:32:55.256Z,1007.05
2016-02-02T10:33:55.289Z,1006.97
2016-02-02T10:34:55.271Z,1007.02
2016-02-02T10:35:55.274Z,1007.01
2016-02-02T10:36:55.293Z,1006.99
2016-02-02T10:37:55.296Z,1006.98
2016-02-02T10:38:55.314Z,1006.92
2016-02-02T10:39:55.319Z,1006.96
2016-02-02T10:40:55.321Z,1006.99
2016-02-02T10:41:55.324Z,1007.1
2016-02-02T10:42:55.341Z,1006.96
2016-02-02T10:43:55.344Z,1006.98
2016-02-02T10:44:55.347Z,1006.85
2016-02-02T10:45:55.350Z,1006.86
2016-02-02T10:46:55.369Z,1006.82
2016-02-02T10:47:55.371Z,1006.95
2016-02-02T10:48:55.374Z,1007.04
2016-02-02T10:49:55.378Z,1007.09
2016-02-02T10:50:55.395Z,1006.98
2016-02-02T10:51:55.397Z,1006.94
2016-02-02T10:52:55.400Z,1006.88
2016-02-02T10:53:55.419Z,1006.92
2016-02-02T10:54:55.422Z,1007
2016-02-02T10:55:55.424Z,1006.94
2016-02-02T10:56:55.431Z,1006.97
2016-02-02T10:57:55.434Z,1006.99
2016-02-02T10:58:55.455Z,1006.95
2016-02-02T11:04:36.252Z,1006.73
2016-02-02T11:05:36.254Z,1006.7
2016-02-02T11:06:36.272Z,1006.72
2016-02-02T11:07:36.274Z,1006.62
2016-02-02T11:08:36.278Z,1006.67
2016-02-02T11:09:36.280Z,1006.59
2016-02-02T11:10:36.288Z,1006.55
2016-02-02T11:11:36.306Z,1006.51
2016-02-02T11:12:36.309Z,1006.49
2016-02-02T11:13:36.312Z,1006.38
2016-02-02T11:14:36.316Z,1006.47
2016-02-02T11:15:36.334Z,1006.43
2016-02-02T11:16:36.336Z,1006.42
2016-02-02T11:17:36.341Z,1006.43
2016-02-02T11:18:36.358Z,1006.4
2016-02-02T11:19:36.361Z,1006.4
2016-02-02T11:20:36.363Z,1006.4
2016-02-02T11:21:36.369Z,1006.39
2016-02-02T11:22:36.372Z,1006.46
2016-02-02T11:23:36.391Z,1006.32
2016-02-02T11:24:36.393Z,1006.33
2016-02-02T11:25:36.396Z,1006.28
2016-02-02T11:26:36.415Z,1006.36
2016-02-02T11:27:36.418Z,1006.36
2016-02-02T11:28:36.427Z,1006.35
2016-02-02T11:29:36.429Z,1006.35
2016-02-02T11:32:23.048Z,1006.32
2016-02-02T11:33:23.051Z,1006.29
2016-02-02T11:34:23.054Z,1006.35
2016-02-02T11:35:23.072Z,1006.24
2016-02-02T11:36:23.076Z,1006.31
2016-02-02T11:37:23.078Z,1006.26
2016-02-02T11:38:23.080Z,1006.26
2016-02-02T11:39:23.099Z,1006.28
2016-02-02T11:40:23.104Z,1006.16
2016-02-02T11:41:23.107Z,1006.21
2016-02-02T11:42:23.110Z,1006.18
2016-02-02T11:43:23.127Z,1006.17
2016-02-02T11:44:23.130Z,1006.21
2016-02-02T11:45:23.137Z,1006.27
2016-02-02T11:46:23.139Z,1006.18
2016-02-02T11:47:23.158Z,1006.08
2016-02-02T11:48:23.162Z,1006
2016-02-02T11:49:23.165Z,1006.01
2016-02-02T11:50:23.182Z,1005.9
2016-02-02T11:51:23.185Z,1005.95
2016-02-02T11:52:23.187Z,1005.94
2016-02-02T11:53:23.191Z,1005.98
2016-02-02T11:54:23.193Z,1005.9
2016-02-02T11:55:23.211Z,1005.93
2016-02-02T11:56:23.214Z,1005.84
2016-02-02T11:57:23.217Z,1005.76
2016-02-02T11:58:23.238Z,1005.83
2016-02-02T11:59:23.242Z,1005.88
2016-02-02T12:05:32.667Z,1005.66
2016-02-02T12:06:32.686Z,1005.73
2016-02-02T12:07:32.689Z,1005.58
2016-02-02T12:08:32.708Z,1005.62
2016-02-02T12:09:32.710Z,1005.65
2016-02-02T12:10:32.713Z,1005.59
2016-02-02T12:11:32.717Z,1005.61
2016-02-02T12:12:32.719Z,1005.63
2016-02-02T12:13:32.738Z,1005.59
2016-02-02T12:14:32.740Z,1005.55
2016-02-02T12:15:32.743Z,1005.5
2016-02-02T12:16:32.762Z,1005.5
2016-02-02T12:17:32.764Z,1005.49
2016-02-02T12:18:32.767Z,1005.5
2016-02-02T12:19:32.769Z,1005.44
2016-02-02T12:20:32.787Z,1005.49
2016-02-02T12:21:32.791Z,1005.46
2016-02-02T12:22:32.793Z,1005.51
2016-02-02T12:23:32.797Z,1005.5
2016-02-02T12:24:32.814Z,1005.48
2016-02-02T12:25:32.833Z,1005.49
2016-02-02T12:26:32.820Z,1005.54
2016-02-02T12:27:32.839Z,1005.53
2016-02-02T12:28:32.841Z,1005.57
2016-02-02T12:29:32.856Z,1005.55
2016-02-02T12:31:32.861Z,1005.6
2016-02-02T12:32:32.863Z,1005.56
2016-02-02T12:33:32.880Z,1005.54
2016-02-02T12:34:32.884Z,1005.58
2016-02-02T12:35:32.887Z,1005.6
2016-02-02T12:36:32.889Z,1005.7
2016-02-02T12:37:32.907Z,1005.62
2016-02-02T12:38:32.910Z,1005.55
2016-02-02T12:39:32.960Z,1005.58
2016-02-02T12:40:32.932Z,1005.64
2016-02-02T12:41:32.937Z,1005.57
2016-02-02T12:42:32.939Z,1005.51
2016-02-02T12:43:32.941Z,1005.56
2016-02-02T12:44:32.960Z,1005.58
2016-02-02T12:45:32.962Z,1005.54
2016-02-02T12:46:32.965Z,1005.46
2016-02-02T12:47:32.983Z,1005.5
2016-02-02T12:48:32.986Z,1005.48
2016-02-02T12:49:32.982Z,1005.39
2016-02-02T12:50:32.989Z,1005.4
2016-02-02T12:51:32.982Z,1005.37
2016-02-02T12:52:32.974Z,1005.25
2016-02-02T12:53:32.967Z,1005.24
2016-02-02T12:54:32.979Z,1005.29
2016-02-02T12:55:32.977Z,1005.25
2016-02-02T12:56:32.976Z,1005.25
2016-02-02T12:57:32.975Z,1005.19
2016-02-02T12:58:32.990Z,1005.18
2016-02-02T12:59:32.991Z,1005.11
2016-02-02T13:00:32.998Z,1005.19
2016-02-02T13:01:33.000Z,1005.07
2016-02-02T13:02:33.001Z,1005.1
2016-02-02T13:03:33.018Z,1005.03
2016-02-02T13:04:33.021Z,1004.92
2016-02-02T13:05:33.023Z,1004.95
2016-02-02T13:06:33.041Z,1004.99
2016-02-02T13:07:33.044Z,1004.97
2016-02-02T13:08:33.046Z,1004.93
2016-02-02T13:09:33.048Z,1004.85
2016-02-02T13:10:33.066Z,1004.84
2016-02-02T13:11:33.084Z,1004.86
2016-02-02T13:12:33.074Z,1004.87
2016-02-02T13:13:33.076Z,1004.86
2016-02-02T13:14:33.095Z,1004.87
2016-02-02T13:15:33.098Z,1004.89
2016-02-02T13:16:33.101Z,1004.9
2016-02-02T13:17:33.104Z,1004.98
2016-02-02T13:18:33.122Z,1005.06
2016-02-02T13:19:33.129Z,1005.02
2016-02-02T13:20:33.132Z,1005.05